Time;durP1;ratioP1;P1;durP2;ratioP2;P2;SDS_P1;SDS_P2;PMS_P1;PMS_P2;Temp;Humidity;BMP_temperature;BMP_pressure;BME280_temperature;BME280_humidity;BME280_pressure;Samples;Min_cycle;Max_cycle;Signal;HPM_P1;HPM_P2
2024/01/16 00:02:14;;;;;;;;;;;1.20;91.30;;;;;;5008988;28;87144;-47
2024/01/16 00:04:40;;;;;;;;;;;1.20;91.30;;;;;;5007671;28;87025;-48
2024/01/16 00:07:06;;;;;;;;;;;1.20;91.50;;;;;;5007561;28;88604;-47
2024/01/16 00:09:34;;;;;;;;;;;1.30;91.40;;;;;;5008033;28;86955;-45
2024/01/16 00:12:01;;;;;;;;;;;1.20;91.30;;;;;;5007247;28;86966;-46
2024/01/16 00:14:27;;;;;;;;;;;1.30;91.30;;;;;;5009030;28;86161;-48
2024/01/16 00:16:53;;;;;;;;;;;1.30;91.30;;;;;;5007820;28;87197;-46
2024/01/16 00:19:18;;;;;;;;;;;1.20;91.40;;;;;;5008257;28;87387;-47
2024/01/16 00:21:47;;;;;;;;;;;1.30;91.30;;;;;;5006934;28;88115;-47
2024/01/16 00:24:16;;;;;;;;;;;1.30;91.50;;;;;;5007998;28;87669;-47
2024/01/16 00:26:41;;;;;;;;;;;1.30;91.30;;;;;;5007885;28;88632;-46
2024/01/16 00:29:08;;;;;;;;;;;1.30;91.40;;;;;;5005371;28;86995;-46
2024/01/16 00:31:34;;;;;;;;;;;1.30;91.30;;;;;;5004935;28;86906;-46
2024/01/16 00:34:00;;;;;;;;;;;1.30;91.40;;;;;;5007738;28;87304;-47
2024/01/16 00:36:25;;;;;;;;;;;1.30;91.20;;;;;;5007313;28;86970;-48
2024/01/16 00:38:51;;;;;;;;;;;1.40;91.30;;;;;;5007193;28;86640;-46
2024/01/16 00:41:17;;;;;;;;;;;1.30;91.30;;;;;;5007523;28;86996;-47
2024/01/16 00:43:45;;;;;;;;;;;1.40;91.30;;;;;;5008306;28;86881;-46
2024/01/16 00:46:11;;;;;;;;;;;1.40;91.30;;;;;;5004538;28;88403;-48
2024/01/16 00:48:36;;;;;;;;;;;1.40;91.40;;;;;;5007534;28;86941;-46
2024/01/16 00:51:02;;;;;;;;;;;1.40;91.30;;;;;;5007397;28;86979;-45
2024/01/16 00:53:27;;;;;;;;;;;1.40;91.40;;;;;;5010600;28;87386;-46
2024/01/16 00:55:54;;;;;;;;;;;1.40;91.30;;;;;;5007734;28;87080;-46
2024/01/16 00:58:20;;;;;;;;;;;1.40;91.40;;;;;;5006609;28;88958;-46
2024/01/16 01:00:45;;;;;;;;;;;1.40;91.30;;;;;;5008025;28;86940;-48
2024/01/16 01:03:11;;;;;;;;;;;1.40;91.40;;;;;;5007798;28;86775;-47
2024/01/16 01:05:37;;;;;;;;;;;1.40;91.40;;;;;;5004033;28;87508;-46
2024/01/16 01:08:02;;;;;;;;;;;1.40;91.30;;;;;;5006528;28;87030;-46
2024/01/16 01:10:28;;;;;;;;;;;1.40;91.30;;;;;;5002656;28;88157;-47
2024/01/16 01:12:53;;;;;;;;;;;1.40;91.30;;;;;;5006104;28;87502;-47
2024/01/16 01:15:22;;;;;;;;;;;1.40;91.30;;;;;;5010709;28;87556;-47
2024/01/16 01:17:51;;;;;;;;;;;1.40;91.30;;;;;;5002718;28;87510;-46
2024/01/16 01:20:17;;;;;;;;;;;1.40;91.30;;;;;;5005816;28;87948;-46
2024/01/16 01:22:44;;;;;;;;;;;1.40;91.30;;;;;;5003752;28;86899;-47
2024/01/16 01:25:10;;;;;;;;;;;1.40;91.30;;;;;;5006301;28;88235;-48
2024/01/16 01:27:36;;;;;;;;;;;1.50;91.30;;;;;;5007269;28;88009;-47
2024/01/16 01:30:01;;;;;;;;;;;1.50;91.30;;;;;;5007346;28;87044;-47
2024/01/16 01:32:27;;;;;;;;;;;1.40;91.30;;;;;;5006379;28;87434;-47
2024/01/16 01:34:52;;;;;;;;;;;1.50;91.30;;;;;;5006878;28;88279;-49
2024/01/16 01:37:18;;;;;;;;;;;1.50;91.30;;;;;;5009354;28;87699;-46
2024/01/16 01:39:43;;;;;;;;;;;1.50;91.30;;;;;;5007148;28;86927;-47
2024/01/16 01:42:09;;;;;;;;;;;1.50;91.20;;;;;;5007784;28;87170;-50
2024/01/16 01:44:35;;;;;;;;;;;1.50;91.30;;;;;;5006739;28;88456;-46
2024/01/16 01:47:00;;;;;;;;;;;1.50;91.30;;;;;;5007326;28;86962;-46
2024/01/16 01:49:27;;;;;;;;;;;1.50;91.30;;;;;;5006184;28;86994;-47
2024/01/16 01:51:53;;;;;;;;;;;1.50;91.30;;;;;;5005695;28;86421;-47
2024/01/16 01:54:20;;;;;;;;;;;1.50;91.30;;;;;;5006464;28;87117;-47
2024/01/16 01:56:47;;;;;;;;;;;1.50;91.30;;;;;;5005800;28;87790;-47
2024/01/16 01:59:13;;;;;;;;;;;1.50;91.40;;;;;;5008973;28;88256;-48
2024/01/16 02:01:39;;;;;;;;;;;1.50;91.40;;;;;;5003603;28;87001;-46
2024/01/16 02:04:06;;;;;;;;;;;1.50;91.40;;;;;;5005692;28;87680;-47
2024/01/16 02:06:32;;;;;;;;;;;1.50;91.30;;;;;;5003031;28;86758;-46
2024/01/16 02:08:58;;;;;;;;;;;1.60;91.40;;;;;;5002179;28;87862;-47
2024/01/16 02:11:24;;;;;;;;;;;1.50;91.30;;;;;;5006060;28;87398;-47
2024/01/16 02:13:49;;;;;;;;;;;1.60;91.30;;;;;;5005244;28;86954;-47
2024/01/16 02:16:22;;;;;;;;;;;1.50;91.30;;;;;;5007389;28;86661;-46
2024/01/16 02:18:48;;;;;;;;;;;1.50;91.40;;;;;;5005794;28;87419;-49
2024/01/16 02:21:16;;;;;;;;;;;1.50;91.30;;;;;;5008864;28;87034;-47
2024/01/16 02:23:42;;;;;;;;;;;1.50;91.40;;;;;;5002934;28;89362;-47
2024/01/16 02:26:08;;;;;;;;;;;1.60;91.40;;;;;;5006618;28;87039;-46
2024/01/16 02:28:33;;;;;;;;;;;1.50;91.40;;;;;;5006708;28;86928;-46
2024/01/16 02:30:59;;;;;;;;;;;1.60;91.40;;;;;;5006373;28;87280;-47
2024/01/16 02:33:24;;;;;;;;;;;1.60;91.30;;;;;;5006569;28;86983;-47
2024/01/16 02:35:50;;;;;;;;;;;1.60;91.30;;;;;;5006474;28;87378;-48
2024/01/16 02:38:15;;;;;;;;;;;1.60;91.30;;;;;;5005515;28;87368;-48
2024/01/16 02:40:41;;;;;;;;;;;1.60;91.30;;;;;;5010032;28;86341;-46
2024/01/16 02:43:07;;;;;;;;;;;1.60;91.40;;;;;;5006314;28;87247;-47
2024/01/16 02:45:33;;;;;;;;;;;1.60;91.40;;;;;;5005852;28;86979;-46
2024/01/16 02:47:58;;;;;;;;;;;1.60;91.40;;;;;;5005936;28;87906;-46
2024/01/16 02:50:24;;;;;;;;;;;1.60;91.40;;;;;;5005929;28;87431;-47
2024/01/16 02:52:50;;;;;;;;;;;1.60;91.40;;;;;;5005788;28;86998;-46
2024/01/16 02:55:15;;;;;;;;;;;1.60;91.40;;;;;;5006047;28;87323;-46
2024/01/16 02:57:41;;;;;;;;;;;1.60;91.30;;;;;;5001688;28;87599;-46
2024/01/16 03:00:07;;;;;;;;;;;1.70;91.40;;;;;;5006817;28;87009;-47
2024/01/16 03:02:33;;;;;;;;;;;1.70;91.40;;;;;;5012362;28;87879;-47
2024/01/16 03:04:59;;;;;;;;;;;1.70;91.30;;;;;;5010218;28;86202;-46
2024/01/16 03:07:25;;;;;;;;;;;1.70;91.40;;;;;;5009176;28;87061;-47
2024/01/16 03:09:51;;;;;;;;;;;1.70;91.30;;;;;;5007925;28;87534;-46
2024/01/16 03:12:17;;;;;;;;;;;1.70;91.40;;;;;;5006869;28;87908;-46
2024/01/16 03:14:42;;;;;;;;;;;1.70;91.40;;;;;;5009500;28;87644;-48
2024/01/16 03:17:08;;;;;;;;;;;1.70;91.40;;;;;;5009016;28;87181;-46
2024/01/16 03:19:33;;;;;;;;;;;1.70;91.40;;;;;;5003397;28;87820;-46
2024/01/16 03:21:59;;;;;;;;;;;1.70;91.40;;;;;;5009743;28;86801;-46
2024/01/16 03:24:26;;;;;;;;;;;1.70;91.50;;;;;;5009452;28;90132;-48
2024/01/16 03:26:51;;;;;;;;;;;1.70;91.50;;;;;;5007562;28;89538;-46
2024/01/16 03:29:17;;;;;;;;;;;1.70;91.70;;;;;;5009397;28;86827;-48
2024/01/16 03:31:42;;;;;;;;;;;1.70;91.60;;;;;;5009509;28;87013;-47
2024/01/16 03:34:10;;;;;;;;;;;1.70;91.50;;;;;;5008937;28;87946;-47
2024/01/16 03:36:36;;;;;;;;;;;1.80;91.50;;;;;;5008241;28;87765;-48
2024/01/16 03:39:01;;;;;;;;;;;1.80;91.50;;;;;;5008882;28;87829;-47
2024/01/16 03:41:27;;;;;;;;;;;1.80;91.50;;;;;;5009390;28;86905;-46
2024/01/16 03:43:56;;;;;;;;;;;1.80;91.60;;;;;;5008058;28;87380;-49
2024/01/16 03:46:22;;;;;;;;;;;1.80;91.60;;;;;;5011349;28;88463;-49
2024/01/16 03:48:47;;;;;;;;;;;1.80;91.60;;;;;;5008810;28;87456;-47
2024/01/16 03:51:15;;;;;;;;;;;1.80;91.80;;;;;;5009128;28;87017;-48
2024/01/16 03:53:41;;;;;;;;;;;1.80;91.60;;;;;;5008074;28;87880;-46
2024/01/16 03:56:07;;;;;;;;;;;1.80;91.70;;;;;;5006694;28;87780;-47
2024/01/16 03:58:33;;;;;;;;;;;1.80;91.60;;;;;;5008338;28;87199;-47
2024/01/16 04:00:59;;;;;;;;;;;1.80;91.60;;;;;;5007932;28;87806;-47
2024/01/16 04:03:24;;;;;;;;;;;1.80;91.50;;;;;;5007799;28;87501;-47
2024/01/16 04:05:50;;;;;;;;;;;1.80;91.60;;;;;;5009212;28;87337;-48
2024/01/16 04:08:16;;;;;;;;;;;1.80;91.60;;;;;;5012676;28;87878;-46
2024/01/16 04:10:42;;;;;;;;;;;1.80;91.60;;;;;;5007820;28;87361;-47
2024/01/16 04:13:07;;;;;;;;;;;1.80;91.70;;;;;;5007198;28;86931;-48
2024/01/16 04:15:33;;;;;;;;;;;1.80;91.50;;;;;;5004439;28;87332;-47
2024/01/16 04:17:59;;;;;;;;;;;1.80;91.60;;;;;;5009012;28;86186;-47
2024/01/16 04:20:25;;;;;;;;;;;1.80;91.60;;;;;;5007733;28;87019;-48
2024/01/16 04:22:50;;;;;;;;;;;1.80;91.60;;;;;;5007950;28;86778;-48
2024/01/16 04:25:16;;;;;;;;;;;1.80;91.50;;;;;;5006655;28;88003;-47
2024/01/16 04:27:42;;;;;;;;;;;1.90;91.60;;;;;;5008741;28;87673;-47
2024/01/16 04:30:08;;;;;;;;;;;1.90;91.60;;;;;;5010982;28;87111;-48
2024/01/16 04:32:33;;;;;;;;;;;1.90;91.50;;;;;;5008089;28;86972;-47
2024/01/16 04:34:59;;;;;;;;;;;1.90;91.50;;;;;;5007780;28;86936;-47
2024/01/16 04:37:24;;;;;;;;;;;1.90;91.60;;;;;;5005432;28;87002;-48
2024/01/16 04:39:50;;;;;;;;;;;1.90;91.60;;;;;;5007426;28;87038;-48
2024/01/16 04:42:17;;;;;;;;;;;1.90;91.60;;;;;;5008532;28;86666;-46
2024/01/16 04:44:43;;;;;;;;;;;1.90;91.60;;;;;;5008073;28;87214;-47
2024/01/16 04:47:09;;;;;;;;;;;1.90;91.60;;;;;;5008341;28;86984;-46
2024/01/16 04:49:34;;;;;;;;;;;1.90;91.60;;;;;;5010272;28;88538;-46
2024/01/16 04:52:00;;;;;;;;;;;1.90;91.50;;;;;;5008130;28;87792;-48
2024/01/16 04:54:25;;;;;;;;;;;1.90;91.50;;;;;;5006608;28;87694;-48
2024/01/16 04:56:51;;;;;;;;;;;1.90;91.50;;;;;;5007983;28;86954;-47
2024/01/16 04:59:16;;;;;;;;;;;1.90;91.60;;;;;;5004881;28;88287;-48
2024/01/16 05:01:42;;;;;;;;;;;1.90;91.60;;;;;;5006629;28;87553;-46
2024/01/16 05:04:10;;;;;;;;;;;1.90;91.60;;;;;;5007237;28;87171;-46
2024/01/16 05:06:35;;;;;;;;;;;1.90;91.60;;;;;;5007139;28;87877;-46
2024/01/16 05:09:01;;;;;;;;;;;1.90;91.60;;;;;;5004163;28;87857;-48
2024/01/16 05:11:26;;;;;;;;;;;1.90;91.60;;;;;;5010180;28;86987;-47
2024/01/16 05:13:57;;;;;;;;;;;1.90;91.60;;;;;;5006214;28;89536;-47
2024/01/16 05:16:24;;;;;;;;;;;1.90;91.60;;;;;;5007226;28;87759;-47
2024/01/16 05:18:50;;;;;;;;;;;1.90;91.60;;;;;;5007665;28;87060;-46
2024/01/16 05:21:15;;;;;;;;;;;2.00;91.60;;;;;;5006154;28;88302;-48
2024/01/16 05:23:41;;;;;;;;;;;2.00;91.50;;;;;;5006864;28;87213;-47
2024/01/16 05:26:07;;;;;;;;;;;2.00;91.50;;;;;;5007299;28;86892;-46
2024/01/16 05:28:32;;;;;;;;;;;2.00;91.50;;;;;;5006405;28;88475;-48
2024/01/16 05:30:59;;;;;;;;;;;2.00;91.50;;;;;;5008194;28;86373;-48
2024/01/16 05:33:24;;;;;;;;;;;2.00;91.50;;;;;;5010043;28;86929;-47
2024/01/16 05:35:50;;;;;;;;;;;2.00;91.50;;;;;;5006114;28;87298;-47
2024/01/16 05:38:16;;;;;;;;;;;2.00;91.50;;;;;;5006602;28;87904;-46
2024/01/16 05:40:42;;;;;;;;;;;2.00;91.50;;;;;;5002902;28;88493;-47
2024/01/16 05:43:07;;;;;;;;;;;2.00;91.40;;;;;;5007300;28;86968;-47
2024/01/16 05:45:33;;;;;;;;;;;2.00;91.40;;;;;;5005823;28;86974;-47
2024/01/16 05:47:58;;;;;;;;;;;2.00;91.50;;;;;;5006934;28;87522;-48
2024/01/16 05:50:24;;;;;;;;;;;2.00;91.50;;;;;;5005923;28;87026;-48
2024/01/16 05:52:50;;;;;;;;;;;2.00;91.30;;;;;;5003664;28;87180;-48
2024/01/16 05:55:15;;;;;;;;;;;2.00;91.40;;;;;;5009407;28;86889;-47
2024/01/16 05:57:43;;;;;;;;;;;2.00;91.40;;;;;;5007179;28;87051;-48
2024/01/16 06:00:09;;;;;;;;;;;2.00;91.40;;;;;;4998950;28;88500;-46
2024/01/16 06:02:34;;;;;;;;;;;2.00;91.40;;;;;;5005529;28;87901;-49
2024/01/16 06:05:00;;;;;;;;;;;2.00;91.30;;;;;;5006775;28;87717;-47
2024/01/16 06:07:25;;;;;;;;;;;2.00;91.30;;;;;;5006629;28;87168;-48
2024/01/16 06:09:51;;;;;;;;;;;2.00;91.20;;;;;;5005722;28;86971;-46
2024/01/16 06:12:17;;;;;;;;;;;2.10;91.20;;;;;;5005452;28;86859;-47
2024/01/16 06:14:42;;;;;;;;;;;2.10;91.20;;;;;;5006149;28;88473;-47
2024/01/16 06:17:08;;;;;;;;;;;2.00;91.10;;;;;;5009273;28;86972;-48
2024/01/16 06:19:34;;;;;;;;;;;2.10;91.10;;;;;;5007062;28;86121;-46
2024/01/16 06:22:00;;;;;;;;;;;2.00;91.10;;;;;;5006572;28;86956;-47
2024/01/16 06:24:25;;;;;;;;;;;2.00;91.20;;;;;;5005808;28;87856;-46
2024/01/16 06:26:51;;;;;;;;;;;2.10;91.10;;;;;;5005099;28;88491;-47
2024/01/16 06:29:16;;;;;;;;;;;2.10;91.10;;;;;;5006568;28;87008;-49
2024/01/16 06:31:42;;;;;;;;;;;2.10;91.10;;;;;;5006186;28;86858;-46
2024/01/16 06:34:08;;;;;;;;;;;2.00;91.00;;;;;;5005049;28;86967;-49
2024/01/16 06:36:34;;;;;;;;;;;2.00;91.10;;;;;;5005633;28;86987;-48
2024/01/16 06:38:59;;;;;;;;;;;2.10;91.10;;;;;;5004628;28;89492;-48
2024/01/16 06:41:25;;;;;;;;;;;2.00;91.10;;;;;;5005973;28;87036;-48
2024/01/16 06:43:50;;;;;;;;;;;2.00;91.20;;;;;;5006866;28;87651;-49
2024/01/16 06:46:16;;;;;;;;;;;2.10;91.10;;;;;;5005798;28;88516;-49
2024/01/16 06:48:42;;;;;;;;;;;2.00;91.10;;;;;;5005972;28;86983;-48
2024/01/16 06:51:08;;;;;;;;;;;2.00;91.10;;;;;;5005927;28;87808;-46
2024/01/16 06:53:34;;;;;;;;;;;2.00;91.10;;;;;;5002133;28;86734;-48
2024/01/16 06:56:00;;;;;;;;;;;2.00;91.10;;;;;;5004150;28;87334;-47
2024/01/16 06:58:25;;;;;;;;;;;2.10;91.10;;;;;;5005043;28;86977;-49
2024/01/16 07:00:51;;;;;;;;;;;2.00;91.10;;;;;;5006300;28;87080;-47
2024/01/16 07:03:17;;;;;;;;;;;2.00;91.10;;;;;;5006293;28;86830;-50
2024/01/16 07:05:43;;;;;;;;;;;2.00;91.10;;;;;;5005792;28;88530;-48
2024/01/16 07:08:08;;;;;;;;;;;2.00;91.10;;;;;;5006063;28;86338;-46
2024/01/16 07:10:35;;;;;;;;;;;2.00;91.10;;;;;;5005827;28;87002;-47
2024/01/16 07:13:01;;;;;;;;;;;2.00;91.10;;;;;;5005677;28;86889;-48
2024/01/16 07:15:27;;;;;;;;;;;2.00;91.10;;;;;;5005343;28;87901;-48
2024/01/16 07:17:52;;;;;;;;;;;2.00;91.10;;;;;;5005985;28;87611;-47
2024/01/16 07:20:18;;;;;;;;;;;2.00;91.10;;;;;;5006795;28;87565;-47
2024/01/16 07:22:43;;;;;;;;;;;2.00;91.10;;;;;;5005815;28;87787;-48
2024/01/16 07:25:09;;;;;;;;;;;2.00;91.00;;;;;;5005852;28;87353;-48
2024/01/16 07:27:35;;;;;;;;;;;2.00;91.20;;;;;;5002241;28;87063;-47
2024/01/16 07:30:01;;;;;;;;;;;2.00;91.10;;;;;;5005541;28;86816;-48
2024/01/16 07:32:26;;;;;;;;;;;2.00;91.00;;;;;;5000645;28;86247;-46
2024/01/16 07:34:52;;;;;;;;;;;2.10;90.90;;;;;;5004921;28;86944;-47
2024/01/16 07:37:18;;;;;;;;;;;2.10;91.10;;;;;;5005489;28;88111;-47
2024/01/16 07:39:44;;;;;;;;;;;2.00;91.00;;;;;;5004216;28;88377;-47
2024/01/16 07:42:10;;;;;;;;;;;2.10;91.00;;;;;;5007276;28;86985;-46
2024/01/16 07:44:35;;;;;;;;;;;2.00;91.00;;;;;;5005040;28;87452;-50
2024/01/16 07:47:01;;;;;;;;;;;2.00;91.00;;;;;;5006966;28;87117;-47
2024/01/16 07:49:26;;;;;;;;;;;2.00;90.90;;;;;;5008706;28;87001;-47
2024/01/16 07:51:52;;;;;;;;;;;2.10;91.00;;;;;;5007483;28;87557;-48
2024/01/16 07:54:17;;;;;;;;;;;2.10;90.90;;;;;;5007423;28;87072;-48
2024/01/16 07:56:43;;;;;;;;;;;2.10;90.80;;;;;;5008093;28;86926;-47
2024/01/16 07:59:09;;;;;;;;;;;2.10;90.80;;;;;;5008639;28;88457;-48
2024/01/16 08:01:34;;;;;;;;;;;2.10;90.80;;;;;;5008552;28;87050;-50
2024/01/16 08:04:00;;;;;;;;;;;2.10;90.80;;;;;;5010981;28;87948;-47
2024/01/16 08:06:26;;;;;;;;;;;2.10;90.80;;;;;;5009203;28;87014;-48
2024/01/16 08:08:51;;;;;;;;;;;2.10;90.80;;;;;;5007515;28;88186;-47
2024/01/16 08:11:18;;;;;;;;;;;2.10;90.70;;;;;;5006690;28;87421;-47
2024/01/16 08:13:44;;;;;;;;;;;2.10;90.70;;;;;;5006551;28;87015;-48
2024/01/16 08:16:09;;;;;;;;;;;2.10;90.60;;;;;;5008273;28;86891;-47
2024/01/16 08:18:35;;;;;;;;;;;2.10;90.50;;;;;;5005551;28;87786;-46
2024/01/16 08:21:00;;;;;;;;;;;2.10;90.60;;;;;;5008828;28;86250;-47
2024/01/16 08:23:26;;;;;;;;;;;2.10;90.60;;;;;;5008386;28;87085;-46
2024/01/16 08:25:51;;;;;;;;;;;2.10;90.90;;;;;;5010220;28;87575;-47
2024/01/16 08:28:17;;;;;;;;;;;2.10;90.60;;;;;;5007271;28;87942;-46
2024/01/16 08:30:43;;;;;;;;;;;2.10;90.60;;;;;;5008100;28;87561;-48
2024/01/16 08:33:09;;;;;;;;;;;2.10;90.60;;;;;;5007020;28;87022;-48
2024/01/16 08:35:34;;;;;;;;;;;2.10;90.60;;;;;;5008531;28;86824;-50
2024/01/16 08:38:01;;;;;;;;;;;2.10;90.60;;;;;;5008130;28;87414;-50
2024/01/16 08:40:26;;;;;;;;;;;2.10;90.50;;;;;;5008063;28;86775;-48
2024/01/16 08:42:54;;;;;;;;;;;2.10;90.50;;;;;;5005822;28;87640;-47
2024/01/16 08:45:23;;;;;;;;;;;2.10;90.50;;;;;;5007600;28;87684;-46
2024/01/16 08:47:52;;;;;;;;;;;2.10;90.50;;;;;;5006752;28;86963;-48
2024/01/16 08:50:17;;;;;;;;;;;2.10;90.60;;;;;;5007782;28;87319;-46
2024/01/16 08:52:43;;;;;;;;;;;2.10;90.50;;;;;;5006939;28;88097;-47
2024/01/16 08:55:09;;;;;;;;;;;2.10;90.50;;;;;;5008140;28;87674;-47
2024/01/16 08:57:35;;;;;;;;;;;2.10;90.40;;;;;;5006312;28;88788;-51
2024/01/16 09:00:00;;;;;;;;;;;2.00;90.40;;;;;;5007305;28;87012;-46
2024/01/16 09:02:28;;;;;;;;;;;2.10;90.50;;;;;;5003796;28;87775;-47
2024/01/16 09:04:54;;;;;;;;;;;2.10;90.50;;;;;;5006267;28;86904;-46
2024/01/16 09:07:20;;;;;;;;;;;2.10;90.40;;;;;;5010388;28;87235;-48
2024/01/16 09:09:46;;;;;;;;;;;2.10;90.40;;;;;;5006472;28;86845;-47
2024/01/16 09:12:11;;;;;;;;;;;2.10;90.50;;;;;;5007300;28;87073;-48
2024/01/16 09:14:37;;;;;;;;;;;2.10;90.50;;;;;;5006566;28;87782;-47
2024/01/16 09:17:03;;;;;;;;;;;2.10;90.40;;;;;;5006845;28;88376;-48
2024/01/16 09:19:29;;;;;;;;;;;2.10;90.40;;;;;;5007720;28;87041;-47
2024/01/16 09:21:55;;;;;;;;;;;2.10;90.40;;;;;;5007463;28;87606;-48
2024/01/16 09:24:20;;;;;;;;;;;2.10;90.40;;;;;;5006259;28;87258;-48
2024/01/16 09:26:46;;;;;;;;;;;2.10;90.30;;;;;;5004382;28;87114;-48
2024/01/16 09:29:12;;;;;;;;;;;2.10;90.70;;;;;;5006604;28;87061;-47
2024/01/16 09:31:38;;;;;;;;;;;2.10;90.40;;;;;;5007623;28;87443;-50
2024/01/16 09:34:04;;;;;;;;;;;2.10;90.40;;;;;;5007731;28;86702;-47
2024/01/16 09:36:29;;;;;;;;;;;2.10;90.40;;;;;;5006772;28;87330;-47
2024/01/16 09:38:55;;;;;;;;;;;2.10;90.30;;;;;;5001741;28;86709;-47
2024/01/16 09:41:20;;;;;;;;;;;2.10;90.30;;;;;;5006745;28;87899;-48
2024/01/16 09:43:47;;;;;;;;;;;2.10;90.30;;;;;;5006402;28;87704;-47
2024/01/16 09:46:12;;;;;;;;;;;2.10;90.30;;;;;;5007329;28;87053;-47
2024/01/16 09:48:38;;;;;;;;;;;2.10;90.30;;;;;;5007260;28;87328;-48
2024/01/16 09:51:04;;;;;;;;;;;2.10;90.30;;;;;;5009875;28;87472;-47
2024/01/16 09:53:29;;;;;;;;;;;2.10;90.30;;;;;;5002977;28;86840;-47
2024/01/16 09:55:58;;;;;;;;;;;2.10;90.30;;;;;;5006411;28;87492;-46
2024/01/16 09:58:24;;;;;;;;;;;2.10;90.30;;;;;;5006733;28;86193;-47
2024/01/16 10:00:50;;;;;;;;;;;2.10;90.20;;;;;;5007056;28;87045;-48
2024/01/16 10:03:17;;;;;;;;;;;2.10;90.20;;;;;;5005715;28;87367;-49
2024/01/16 10:05:43;;;;;;;;;;;2.20;90.30;;;;;;5005397;28;88094;-46
2024/01/16 10:08:09;;;;;;;;;;;2.10;90.20;;;;;;5006019;28;87638;-48
2024/01/16 10:10:35;;;;;;;;;;;2.10;90.20;;;;;;5005893;28;87352;-47
2024/01/16 10:13:00;;;;;;;;;;;2.10;90.30;;;;;;5008016;28;87120;-48
2024/01/16 10:15:26;;;;;;;;;;;2.10;90.30;;;;;;5005546;28;87580;-46
2024/01/16 10:17:52;;;;;;;;;;;2.20;90.30;;;;;;5006489;28;86963;-47
2024/01/16 10:20:31;;;;;;;;;;;2.20;90.20;;;;;;5006676;28;86845;-48
2024/01/16 10:22:58;;;;;;;;;;;2.20;90.20;;;;;;5001591;28;86913;-47
2024/01/16 10:25:24;;;;;;;;;;;2.20;90.20;;;;;;5005877;28;87051;-47
2024/01/16 10:28:02;;;;;;;;;;;2.20;90.20;;;;;;5006799;28;86885;-47
2024/01/16 10:30:27;;;;;;;;;;;2.20;90.20;;;;;;5003830;28;89515;-47
2024/01/16 10:32:53;;;;;;;;;;;2.20;90.20;;;;;;5006641;28;87016;-48
2024/01/16 10:35:18;;;;;;;;;;;2.20;90.20;;;;;;5007854;28;87858;-47
2024/01/16 10:37:48;;;;;;;;;;;2.20;90.20;;;;;;5006368;28;86954;-47
2024/01/16 10:40:19;;;;;;;;;;;2.20;90.20;;;;;;5002851;28;86897;-46
2024/01/16 10:42:48;;;;;;;;;;;2.20;90.20;;;;;;5006113;28;88515;-47
2024/01/16 10:45:20;;;;;;;;;;;2.20;90.20;;;;;;5005029;28;87054;-47
2024/01/16 10:47:46;;;;;;;;;;;2.20;90.20;;;;;;5006144;28;88006;-47
2024/01/16 10:50:12;;;;;;;;;;;2.20;90.20;;;;;;5005719;28;87495;-47
2024/01/16 10:52:44;;;;;;;;;;;2.20;90.30;;;;;;5006010;28;87080;-51
2024/01/16 10:55:10;;;;;;;;;;;2.20;90.30;;;;;;5006473;28;87854;-47
2024/01/16 10:57:38;;;;;;;;;;;2.20;90.30;;;;;;5005888;28;87047;-48
2024/01/16 11:00:06;;;;;;;;;;;2.20;90.30;;;;;;5003990;28;88420;-47
2024/01/16 11:02:38;;;;;;;;;;;2.20;90.20;;;;;;5005812;28;88349;-49
2024/01/16 11:05:05;;;;;;;;;;;2.20;90.30;;;;;;5004159;28;87881;-47
2024/01/16 11:07:32;;;;;;;;;;;2.10;90.30;;;;;;5005286;28;87927;-47
2024/01/16 11:09:58;;;;;;;;;;;2.20;90.20;;;;;;5005836;28;87624;-48
2024/01/16 11:12:26;;;;;;;;;;;2.20;90.30;;;;;;5006316;28;86202;-47
2024/01/16 11:14:52;;;;;;;;;;;2.20;90.30;;;;;;5004937;28;86832;-47
2024/01/16 11:17:20;;;;;;;;;;;2.20;90.30;;;;;;5007862;28;87310;-48
2024/01/16 11:19:46;;;;;;;;;;;2.20;90.30;;;;;;5004820;28;87992;-48
2024/01/16 11:22:12;;;;;;;;;;;2.20;90.30;;;;;;5008630;28;87304;-50
2024/01/16 11:24:37;;;;;;;;;;;2.20;90.30;;;;;;5009475;28;86990;-48
2024/01/16 11:27:03;;;;;;;;;;;2.20;90.20;;;;;;5009653;28;87085;-47
2024/01/16 11:29:29;;;;;;;;;;;2.20;90.20;;;;;;5008131;28;88564;-49
2024/01/16 11:31:55;;;;;;;;;;;2.20;90.30;;;;;;5009457;28;87005;-48
2024/01/16 11:34:39;;;;;;;;;;;2.20;90.30;;;;;;5009377;28;87017;-47
2024/01/16 11:37:07;;;;;;;;;;;2.20;90.20;;;;;;5007578;28;86646;-47
2024/01/16 11:39:33;;;;;;;;;;;2.20;90.20;;;;;;5011923;28;87035;-47
2024/01/16 11:41:59;;;;;;;;;;;2.20;90.20;;;;;;5008907;28;87458;-47
2024/01/16 11:44:43;;;;;;;;;;;2.30;90.20;;;;;;5006947;28;87966;-47
2024/01/16 11:47:14;;;;;;;;;;;2.20;90.20;;;;;;5006331;28;89007;-47
2024/01/16 11:49:40;;;;;;;;;;;2.20;90.20;;;;;;5004692;28;87533;-49
2024/01/16 11:52:06;;;;;;;;;;;2.20;90.20;;;;;;5008029;28;87483;-49
2024/01/16 11:54:33;;;;;;;;;;;2.30;90.20;;;;;;5005625;28;87805;-46
2024/01/16 11:57:01;;;;;;;;;;;2.30;90.20;;;;;;5003533;28;88457;-48
2024/01/16 11:59:27;;;;;;;;;;;2.30;90.20;;;;;;5008069;28;87014;-48
2024/01/16 12:01:53;;;;;;;;;;;2.30;90.20;;;;;;5011872;28;87919;-47
2024/01/16 12:04:20;;;;;;;;;;;2.30;90.20;;;;;;5008298;28;86986;-47
2024/01/16 12:06:56;;;;;;;;;;;2.30;90.20;;;;;;5008769;28;86880;-47
2024/01/16 12:09:25;;;;;;;;;;;2.30;90.20;;;;;;5001241;28;88411;-47
2024/01/16 12:12:03;;;;;;;;;;;2.30;90.20;;;;;;5008521;28;86901;-47
2024/01/16 12:14:29;;;;;;;;;;;2.30;90.20;;;;;;5007688;28;86935;-47
2024/01/16 12:17:13;;;;;;;;;;;2.30;90.20;;;;;;5007065;28;88034;-48
2024/01/16 12:19:41;;;;;;;;;;;2.30;90.30;;;;;;5005299;28;87069;-48
2024/01/16 12:22:13;;;;;;;;;;;2.30;90.20;;;;;;5004878;28;88016;-46
2024/01/16 12:24:38;;;;;;;;;;;2.30;90.30;;;;;;5008336;28;88823;-47
2024/01/16 12:27:04;;;;;;;;;;;2.30;90.20;;;;;;5007276;28;87891;-49
2024/01/16 12:29:31;;;;;;;;;;;2.30;90.20;;;;;;5007106;28;87472;-48
2024/01/16 12:32:07;;;;;;;;;;;2.30;90.30;;;;;;5002429;28;87045;-49
2024/01/16 12:34:33;;;;;;;;;;;2.30;90.30;;;;;;5004654;28;87869;-50
2024/01/16 12:37:06;;;;;;;;;;;2.30;90.30;;;;;;5008125;28;87410;-47
2024/01/16 12:39:31;;;;;;;;;;;2.30;90.30;;;;;;5004961;28;87024;-49
2024/01/16 12:41:57;;;;;;;;;;;2.30;90.30;;;;;;5008172;28;86980;-48
2024/01/16 12:44:29;;;;;;;;;;;2.30;90.30;;;;;;5007692;28;87524;-47
2024/01/16 12:46:55;;;;;;;;;;;2.30;90.30;;;;;;5010124;28;87098;-47
2024/01/16 12:49:22;;;;;;;;;;;2.30;90.30;;;;;;5007029;28;87777;-48
2024/01/16 12:51:48;;;;;;;;;;;2.30;90.20;;;;;;5008460;28;86195;-47
2024/01/16 12:54:14;;;;;;;;;;;2.30;90.30;;;;;;5007779;28;86868;-47
2024/01/16 12:56:40;;;;;;;;;;;2.30;90.30;;;;;;5007165;28;88433;-47
2024/01/16 12:59:11;;;;;;;;;;;2.30;90.30;;;;;;5006949;28;88315;-47
2024/01/16 13:01:39;;;;;;;;;;;2.30;90.30;;;;;;5007307;28;88840;-46
2024/01/16 13:04:05;;;;;;;;;;;2.30;90.30;;;;;;5006438;28;87736;-47
2024/01/16 13:06:31;;;;;;;;;;;2.30;90.30;;;;;;5010750;28;86971;-50
2024/01/16 13:09:10;;;;;;;;;;;2.30;90.30;;;;;;5004604;28;86937;-48
2024/01/16 13:12:04;;;;;;;;;;;2.30;90.40;;;;;;5006429;28;87029;-47
2024/01/16 13:14:30;;;;;;;;;;;2.30;90.40;;;;;;5001936;28;87035;-49
2024/01/16 13:16:56;;;;;;;;;;;2.30;90.30;;;;;;5002685;28;86171;-46
2024/01/16 13:19:21;;;;;;;;;;;2.30;90.60;;;;;;5006474;28;87014;-47
2024/01/16 13:21:48;;;;;;;;;;;2.30;90.40;;;;;;5007358;28;86953;-48
2024/01/16 13:24:13;;;;;;;;;;;2.30;90.40;;;;;;5006479;28;88683;-47
2024/01/16 13:26:39;;;;;;;;;;;2.30;90.40;;;;;;5007684;28;86978;-50
2024/01/16 13:29:09;;;;;;;;;;;2.30;90.40;;;;;;5009487;28;87824;-50
2024/01/16 13:31:34;;;;;;;;;;;2.30;90.40;;;;;;5003262;28;87330;-47
2024/01/16 13:34:00;;;;;;;;;;;2.30;90.40;;;;;;5005813;28;87046;-49
2024/01/16 13:36:26;;;;;;;;;;;2.30;90.40;;;;;;5005435;28;87409;-48
2024/01/16 13:38:51;;;;;;;;;;;2.30;90.40;;;;;;5003297;28;87959;-47
2024/01/16 13:41:17;;;;;;;;;;;2.30;90.40;;;;;;5008128;28;87474;-49
2024/01/16 13:43:42;;;;;;;;;;;2.30;90.40;;;;;;5006868;28;87551;-47
2024/01/16 13:46:10;;;;;;;;;;;2.30;90.40;;;;;;5006792;28;87077;-48
2024/01/16 13:48:35;;;;;;;;;;;2.40;90.40;;;;;;5005674;28;87909;-49
2024/01/16 13:51:01;;;;;;;;;;;2.30;90.40;;;;;;5009605;28;87421;-47
2024/01/16 13:53:27;;;;;;;;;;;2.30;90.40;;;;;;5005505;28;87073;-50
2024/01/16 13:55:52;;;;;;;;;;;2.40;90.40;;;;;;5005919;28;87213;-49
2024/01/16 13:58:18;;;;;;;;;;;2.40;90.40;;;;;;5006646;28;87284;-48
2024/01/16 14:00:44;;;;;;;;;;;2.40;90.40;;;;;;5006664;28;86871;-46
2024/01/16 14:03:09;;;;;;;;;;;2.30;90.40;;;;;;5005657;28;87212;-49
2024/01/16 14:05:36;;;;;;;;;;;2.30;90.40;;;;;;5001371;28;86273;-48
2024/01/16 14:08:02;;;;;;;;;;;2.30;90.50;;;;;;5005390;28;87215;-48
2024/01/16 14:10:27;;;;;;;;;;;2.40;90.50;;;;;;5006565;28;87432;-49
2024/01/16 14:12:55;;;;;;;;;;;2.30;90.50;;;;;;5008516;28;87897;-48
2024/01/16 14:15:24;;;;;;;;;;;2.30;90.50;;;;;;5006625;28;86657;-47
2024/01/16 14:17:54;;;;;;;;;;;2.30;90.50;;;;;;5002984;28;87023;-50
2024/01/16 14:20:23;;;;;;;;;;;2.30;90.50;;;;;;5006622;28;87647;-48
2024/01/16 14:22:54;;;;;;;;;;;2.30;90.50;;;;;;5005571;28;88596;-48
2024/01/16 14:25:20;;;;;;;;;;;2.30;90.40;;;;;;5006192;28;87102;-48
2024/01/16 14:27:57;;;;;;;;;;;2.30;90.50;;;;;;5006573;28;87186;-47